Time;durP1;ratioP1;P1;durP2;ratioP2;P2;SDS_P1;SDS_P2;PMS_P1;PMS_P2;Temp;Humidity;BMP_temperature;BMP_pressure;BME280_temperature;BME280_humidity;BME280_pressure;Samples;Min_cycle;Max_cycle;Signal;HPM_P1;HPM_P2
2023/06/19 00:01:59;;;;;;;10.37;6.20;;;;;;;19.82;100.00;99057.78;5072124;28;20290;-71
2023/06/19 00:04:26;;;;;;;10.67;5.93;;;;;;;19.81;100.00;99050.94;5071197;28;20261;-71
2023/06/19 00:06:53;;;;;;;8.90;5.70;;;;;;;19.78;100.00;99051.28;5071505;28;20287;-71
2023/06/19 00:09:20;;;;;;;9.50;5.33;;;;;;;19.73;100.00;99048.44;5072138;28;20202;-71
2023/06/19 00:11:47;;;;;;;10.37;5.17;;;;;;;19.68;100.00;99044.53;5071151;28;20825;-70
2023/06/19 00:14:14;;;;;;;8.83;5.43;;;;;;;19.77;100.00;99045.31;5071193;28;20205;-71
2023/06/19 00:16:42;;;;;;;8.20;5.43;;;;;;;19.72;100.00;99046.78;5071979;28;20224;-71
2023/06/19 00:19:11;;;;;;;7.27;5.37;;;;;;;19.74;100.00;99048.25;5071678;28;20598;-71
2023/06/19 00:21:39;;;;;;;7.80;5.13;;;;;;;19.74;100.00;99044.84;5070760;28;20224;-71
2023/06/19 00:24:06;;;;;;;7.83;5.03;;;;;;;19.76;100.00;99048.09;5071799;28;20211;-71
2023/06/19 00:26:33;;;;;;;7.47;5.00;;;;;;;19.80;100.00;99046.75;5071726;28;20745;-71
2023/06/19 00:29:00;;;;;;;6.77;4.63;;;;;;;19.71;100.00;99040.78;5070727;28;20204;-72
2023/06/19 00:31:28;;;;;;;7.43;4.60;;;;;;;19.71;100.00;99038.19;5070997;28;20235;-71
2023/06/19 00:33:56;;;;;;;8.47;5.33;;;;;;;19.64;100.00;99045.84;5071890;28;20210;-71
2023/06/19 00:36:25;;;;;;;8.13;5.33;;;;;;;19.66;100.00;99045.69;5070587;28;20421;-71
2023/06/19 00:38:53;;;;;;;7.70;4.83;;;;;;;19.64;100.00;99040.66;5070900;28;20514;-71
2023/06/19 00:41:21;;;;;;;7.50;4.93;;;;;;;19.62;100.00;99034.81;5071307;28;20223;-71
2023/06/19 00:43:48;;;;;;;10.27;5.07;;;;;;;19.67;100.00;99037.75;5070815;28;20197;-71
2023/06/19 00:46:14;;;;;;;8.77;5.03;;;;;;;19.69;100.00;99034.97;5070391;28;20226;-71
2023/06/19 00:48:41;;;;;;;8.30;5.30;;;;;;;19.73;100.00;99038.03;5071163;28;20294;-71
2023/06/19 00:51:10;;;;;;;7.97;4.90;;;;;;;19.76;100.00;99042.91;5070840;28;20216;-71
2023/06/19 00:53:37;;;;;;;11.17;5.03;;;;;;;19.80;100.00;99038.97;5070145;28;20203;-71
2023/06/19 00:56:06;;;;;;;9.80;5.37;;;;;;;19.79;100.00;99043.34;5070977;28;20635;-70
2023/06/19 00:58:33;;;;;;;8.50;5.30;;;;;;;19.86;100.00;99038.28;5071058;28;20229;-71
2023/06/19 01:01:00;;;;;;;6.70;4.70;;;;;;;19.81;100.00;99032.78;5069882;28;20275;-71
2023/06/19 01:03:27;;;;;;;7.33;4.43;;;;;;;19.80;100.00;99036.38;5070578;28;20197;-71
2023/06/19 01:05:56;;;;;;;6.27;4.37;;;;;;;19.76;100.00;99037.69;5070784;28;20231;-70
2023/06/19 01:08:43;;;;;;;7.83;4.97;;;;;;;19.71;100.00;99037.41;5070034;28;20262;-71
2023/06/19 01:11:11;;;;;;;7.10;4.40;;;;;;;19.61;100.00;99028.03;5070033;28;20225;-71
2023/06/19 01:13:43;;;;;;;7.47;4.87;;;;;;;19.62;100.00;99031.41;5071078;28;20198;-71
2023/06/19 01:16:10;;;;;;;7.10;4.40;;;;;;;19.58;100.00;99032.75;5069935;28;20222;-71
2023/06/19 01:18:38;;;;;;;6.10;4.33;;;;;;;19.57;100.00;99033.72;5069866;28;20244;-70
2023/06/19 01:21:12;;;;;;;7.83;4.53;;;;;;;19.58;100.00;99046.50;5070566;28;20218;-71
2023/06/19 01:23:41;;;;;;;7.73;4.50;;;;;;;19.54;100.00;99039.22;5070217;28;20195;-72
2023/06/19 01:26:08;;;;;;;6.67;4.40;;;;;;;19.54;100.00;99045.22;5069382;28;20218;-72
2023/06/19 01:28:37;;;;;;;9.03;5.10;;;;;;;19.45;100.00;99036.66;5070449;28;20210;-70
2023/06/19 01:31:07;;;;;;;6.47;4.17;;;;;;;19.35;100.00;99045.66;5070378;28;20273;-71
2023/06/19 01:33:35;;;;;;;6.77;4.33;;;;;;;19.19;100.00;99042.13;5069404;28;20297;-71
2023/06/19 01:36:04;;;;;;;8.20;4.33;;;;;;;19.12;100.00;99036.00;5070166;28;20242;-71
2023/06/19 01:38:32;;;;;;;8.47;4.37;;;;;;;19.10;100.00;99032.75;5070415;28;20279;-71
2023/06/19 01:41:02;;;;;;;8.60;4.83;;;;;;;18.94;100.00;99045.78;5069342;28;20226;-72
2023/06/19 01:43:31;;;;;;;8.00;4.67;;;;;;;18.92;100.00;99045.13;5069650;28;20662;-71
2023/06/19 01:45:57;;;;;;;7.60;4.97;;;;;;;18.84;100.00;99039.94;5070179;28;20398;-71
2023/06/19 01:48:25;;;;;;;5.83;4.23;;;;;;;18.86;100.00;99040.59;5069731;28;20335;-71
2023/06/19 01:50:52;;;;;;;6.70;4.30;;;;;;;18.83;100.00;99040.94;5069302;28;20711;-70
2023/06/19 01:53:19;;;;;;;8.40;4.73;;;;;;;18.83;100.00;99041.75;5070185;28;20661;-70
2023/06/19 01:55:46;;;;;;;9.17;4.50;;;;;;;18.87;100.00;99043.03;5069240;28;20606;-70
2023/06/19 01:58:14;;;;;;;6.80;3.93;;;;;;;18.84;100.00;99039.94;5068938;28;20205;-71
2023/06/19 02:00:41;;;;;;;6.57;3.87;;;;;;;18.74;100.00;99048.72;5069810;28;20251;-72
2023/06/19 02:03:08;;;;;;;8.87;5.13;;;;;;;18.86;100.00;99045.78;5069945;28;20199;-71
2023/06/19 02:05:39;;;;;;;8.90;4.73;;;;;;;18.88;100.00;99043.81;5069347;28;20224;-70
2023/06/19 02:08:06;;;;;;;8.13;4.33;;;;;;;18.84;100.00;99039.94;5069751;28;20205;-70
2023/06/19 02:10:33;;;;;;;5.73;3.77;;;;;;;18.88;100.00;99034.28;5070037;28;20233;-70
2023/06/19 02:12:59;;;;;;;5.97;4.10;;;;;;;18.96;100.00;99041.22;5068981;28;20697;-70
2023/06/19 02:15:28;;;;;;;6.93;4.17;;;;;;;18.90;100.00;99047.06;5068791;28;20811;-71
2023/06/19 02:17:56;;;;;;;6.43;4.13;;;;;;;18.87;100.00;99037.84;5069800;28;20197;-70
2023/06/19 02:20:24;;;;;;;6.07;4.20;;;;;;;18.85;100.00;99049.34;5069145;28;20366;-71
2023/06/19 02:22:51;;;;;;;6.10;4.17;;;;;;;18.86;100.00;99041.41;5068392;28;20232;-71
2023/06/19 02:25:18;;;;;;;6.10;4.40;;;;;;;18.92;100.00;99040.75;5068548;28;20209;-70
2023/06/19 02:27:44;;;;;;;8.40;3.80;;;;;;;18.91;100.00;99043.53;5069587;28;20199;-71
2023/06/19 02:30:12;;;;;;;7.73;3.80;;;;;;;18.91;100.00;99044.31;5069246;28;20217;-71
2023/06/19 02:32:40;;;;;;;6.13;3.63;;;;;;;18.91;100.00;99041.72;5068599;28;20195;-70
2023/06/19 02:35:10;;;;;;;5.93;3.80;;;;;;;18.89;100.00;99042.88;5069842;28;20291;-71
2023/06/19 02:37:37;;;;;;;7.53;3.90;;;;;;;18.88;100.00;99042.06;5069781;28;20195;-71
2023/06/19 02:40:06;;;;;;;5.63;3.77;;;;;;;18.84;100.00;99042.53;5068850;28;20230;-72
2023/06/19 02:42:33;;;;;;;5.73;3.90;;;;;;;18.81;100.00;99048.06;5069080;28;20217;-71
2023/06/19 02:45:03;;;;;;;6.27;4.10;;;;;;;18.78;100.00;99050.00;5069633;28;20211;-71
2023/06/19 02:47:31;;;;;;;6.83;4.50;;;;;;;18.81;100.00;99045.47;5068639;28;20222;-71
2023/06/19 02:50:00;;;;;;;5.60;3.70;;;;;;;18.88;100.00;99049.00;5069072;28;20207;-71
2023/06/19 02:52:27;;;;;;;9.90;4.50;;;;;;;18.87;100.00;99055.16;5069164;28;20294;-70
2023/06/19 02:54:54;;;;;;;6.57;3.53;;;;;;;18.91;100.00;99053.88;5069264;28;20222;-71
2023/06/19 02:57:21;;;;;;;5.87;3.70;;;;;;;18.87;100.00;99052.56;5068301;28;20226;-70
2023/06/19 02:59:48;;;;;;;6.50;3.80;;;;;;;18.86;100.00;99061.34;5069288;28;20325;-70
2023/06/19 03:02:15;;;;;;;6.07;3.60;;;;;;;18.85;100.00;99060.53;5069003;28;20679;-71
2023/06/19 03:04:42;;;;;;;6.53;3.60;;;;;;;18.89;100.00;99061.00;5068257;28;20205;-72
2023/06/19 03:07:10;;;;;;;7.10;3.60;;;;;;;18.87;100.00;99061.16;5069985;28;20611;-71
2023/06/19 03:09:37;;;;;;;7.73;3.90;;;;;;;18.84;100.00;99060.69;5073814;28;20202;-70
2023/06/19 03:12:05;;;;;;;5.30;3.80;;;;;;;18.84;100.00;99060.69;5072265;28;20229;-71
2023/06/19 03:14:31;;;;;;;5.83;3.30;;;;;;;18.83;100.00;99062.47;5072475;28;20196;-71
2023/06/19 03:16:58;;;;;;;6.30;3.83;;;;;;;18.81;100.00;99063.59;5073100;28;20229;-70
2023/06/19 03:19:25;;;;;;;6.73;3.53;;;;;;;18.84;100.00;99063.28;5072775;28;20245;-71
2023/06/19 03:21:52;;;;;;;5.90;3.77;;;;;;;18.87;100.00;99068.13;5071677;28;20221;-71
2023/06/19 03:24:20;;;;;;;6.30;3.73;;;;;;;18.88;100.00;99061.94;5072751;28;20590;-71
2023/06/19 03:26:47;;;;;;;6.07;3.70;;;;;;;18.82;100.00;99060.03;5072746;28;20228;-71
2023/06/19 03:29:14;;;;;;;5.80;3.30;;;;;;;18.78;100.00;99065.53;5071724;28;20208;-70
2023/06/19 03:31:40;;;;;;;7.13;3.50;;;;;;;18.77;100.00;99063.94;5072183;28;20226;-71
2023/06/19 03:34:07;;;;;;;7.17;3.90;;;;;;;18.66;100.00;99066.81;5073011;28;20198;-70
2023/06/19 03:36:34;;;;;;;6.60;3.70;;;;;;;18.55;100.00;99065.34;5071891;28;20219;-71
2023/06/19 03:39:01;;;;;;;7.37;3.40;;;;;;;18.51;100.00;99064.06;5071854;28;20211;-71
2023/06/19 03:41:29;;;;;;;6.10;3.50;;;;;;;18.45;100.00;99069.91;5072324;28;20775;-70
2023/06/19 03:43:56;;;;;;;6.03;3.40;;;;;;;18.43;100.00;99071.84;5072419;28;20641;-71
2023/06/19 03:46:22;;;;;;;5.93;3.47;;;;;;;18.44;100.00;99077.81;5071261;28;20227;-70
2023/06/19 03:48:49;;;;;;;7.97;3.90;;;;;;;18.42;100.00;99079.78;5072487;28;20206;-71
2023/06/19 03:51:16;;;;;;;6.70;4.00;;;;;;;18.42;100.00;99079.78;5072221;28;20623;-70
2023/06/19 03:53:43;;;;;;;6.53;3.70;;;;;;;18.39;100.00;99075.72;5071241;28;20199;-71
2023/06/19 03:56:09;;;;;;;6.30;4.03;;;;;;;18.36;100.00;99067.47;5072150;28;20307;-71
2023/06/19 03:58:38;;;;;;;5.37;3.43;;;;;;;18.37;100.00;99080.25;5072163;28;20247;-70
2023/06/19 04:01:05;;;;;;;6.30;3.73;;;;;;;18.37;100.00;99072.50;5071159;28;20254;-71
2023/06/19 04:03:32;;;;;;;5.67;3.33;;;;;;;18.38;100.00;99078.47;5071876;28;20203;-71
2023/06/19 04:05:59;;;;;;;5.33;3.40;;;;;;;18.44;100.00;99073.47;5072248;28;20228;-71
2023/06/19 04:08:26;;;;;;;4.73;3.70;;;;;;;18.51;100.00;99078.81;5071472;28;20196;-71
2023/06/19 04:10:52;;;;;;;5.27;3.43;;;;;;;18.52;100.00;99077.81;5071135;28;20259;-71
2023/06/19 04:13:19;;;;;;;5.47;3.70;;;;;;;18.59;100.00;99083.16;5071818;28;20195;-71
2023/06/19 04:15:48;;;;;;;7.83;4.03;;;;;;;18.65;100.00;99080.75;5071666;28;20661;-72
2023/06/19 04:18:14;;;;;;;6.27;3.73;;;;;;;18.70;100.00;99082.84;5070409;28;20200;-71
2023/06/19 04:20:41;;;;;;;8.03;3.60;;;;;;;18.80;100.00;99077.53;5072145;28;20586;-72
2023/06/19 04:23:08;;;;;;;5.37;3.80;;;;;;;18.91;100.00;99080.59;5071771;28;20209;-71
2023/06/19 04:25:35;;;;;;;5.83;3.53;;;;;;;18.96;100.00;99077.50;5070576;28;20233;-72
2023/06/19 04:28:03;;;;;;;5.73;3.80;;;;;;;19.00;100.00;99083.97;5071360;28;20659;-72
2023/06/19 04:30:30;;;;;;;7.30;4.07;;;;;;;19.01;100.00;99085.59;5071630;28;20996;-72
2023/06/19 04:32:59;;;;;;;5.63;3.70;;;;;;;19.11;100.00;99085.41;5071082;28;20748;-71
2023/06/19 04:35:25;;;;;;;5.13;3.60;;;;;;;19.10;100.00;99084.59;5070922;28;20206;-72
2023/06/19 04:37:52;;;;;;;6.67;3.43;;;;;;;19.13;100.00;99089.44;5071620;28;20197;-72
2023/06/19 04:40:19;;;;;;;6.10;4.17;;;;;;;19.18;100.00;99088.97;5071068;28;20237;-71
2023/06/19 04:42:46;;;;;;;7.10;3.57;;;;;;;19.22;100.00;99092.81;5070347;28;20267;-71
2023/06/19 04:45:13;;;;;;;5.57;3.73;;;;;;;19.20;100.00;99090.41;5071135;28;20202;-71
2023/06/19 04:47:39;;;;;;;5.17;3.77;;;;;;;19.25;100.00;99092.50;5071377;28;20475;-72
2023/06/19 04:50:09;;;;;;;5.77;3.70;;;;;;;19.23;100.00;99090.06;5070739;28;20202;-72
2023/06/19 04:52:37;;;;;;;6.43;3.93;;;;;;;19.25;100.00;99087.31;5071143;28;20222;-70
2023/06/19 04:55:04;;;;;;;6.97;3.97;;;;;;;19.35;100.00;99076.75;5071644;28;20212;-71
2023/06/19 04:57:30;;;;;;;7.13;3.93;;;;;;;19.43;100.00;99089.66;5070096;28;20222;-71
2023/06/19 04:59:57;;;;;;;6.37;3.70;;;;;;;19.55;100.00;99077.97;5070628;28;20226;-71
2023/06/19 05:02:24;;;;;;;6.07;4.20;;;;;;;19.70;100.00;99080.69;5070965;28;20668;-71
2023/06/19 05:04:51;;;;;;;7.03;4.17;;;;;;;19.85;100.00;99076.41;5070742;28;20265;-72
2023/06/19 05:07:19;;;;;;;7.97;4.13;;;;;;;20.02;100.00;99079.72;5069760;28;20225;-70
2023/06/19 05:09:46;;;;;;;6.97;4.20;;;;;;;20.19;100.00;99087.38;5070911;28;20249;-72
2023/06/19 05:12:13;;;;;;;5.60;3.83;;;;;;;20.37;100.00;99093.09;5070585;28;20236;-72
2023/06/19 05:14:40;;;;;;;6.03;3.73;;;;;;;20.48;100.00;99092.69;5069924;28;20218;-71
2023/06/19 05:17:09;;;;;;;5.73;3.70;;;;;;;20.69;100.00;99093.88;5070381;28;20226;-72
2023/06/19 05:19:36;;;;;;;6.47;4.30;;;;;;;21.00;100.00;99102.34;5070942;28;20695;-72
2023/06/19 05:22:02;;;;;;;5.80;4.13;;;;;;;21.22;100.00;99107.63;5069686;28;20524;-71
2023/06/19 05:24:31;;;;;;;5.83;3.90;;;;;;;21.46;100.00;99104.78;5070082;28;20207;-72
2023/06/19 05:26:57;;;;;;;6.35;3.95;;;;;;;21.68;100.00;99094.47;5070426;28;20299;-72
2023/06/19 05:29:24;;;;;;;11.00;4.25;;;;;;;21.87;100.00;99093.06;5069085;28;20202;-71
2023/06/19 05:31:51;;;;;;;7.15;4.30;;;;;;;22.03;100.00;99097.25;5069809;28;20229;-71
2023/06/19 05:34:18;;;;;;;5.50;4.00;;;;;;;22.20;100.00;99088.25;5070906;28;20252;-71
2023/06/19 05:36:46;;;;;;;6.57;4.22;;;;;;;22.39;100.00;99092.00;5070035;28;20283;-71
2023/06/19 05:39:13;;;;;;;13.05;4.63;;;;;;;22.45;100.00;99093.88;5069241;28;20205;-71
2023/06/19 05:41:45;;;;;;;6.60;4.30;;;;;;;22.53;100.00;99100.75;5069984;28;20239;-71
2023/06/19 05:44:14;;;;;;;7.75;4.10;;;;;;;22.71;100.00;99102.91;5070407;28;20210;-71
2023/06/19 05:46:41;;;;;;;7.30;4.45;;;;;;;23.01;100.00;99100.97;5068871;28;20225;-72
2023/06/19 05:49:08;;;;;;;6.07;3.97;;;;;;;23.14;100.00;99111.47;5070036;28;20199;-71
2023/06/19 05:51:35;;;;;;;7.35;4.40;;;;;;;23.16;100.00;99101.66;5070077;28;20280;-72
2023/06/19 05:54:03;;;;;;;6.25;4.40;;;;;;;23.27;100.00;99113.31;5069439;28;20199;-73
2023/06/19 05:56:30;;;;;;;6.18;4.25;;;;;;;23.17;99.70;99116.28;5069604;28;20218;-71
2023/06/19 05:58:58;;;;;;;5.75;3.80;;;;;;;23.25;98.90;99116.16;5070036;28;20647;-72
2023/06/19 06:01:27;;;;;;;6.05;4.15;;;;;;;23.59;100.00;99116.31;5069384;28;20278;-72
2023/06/19 06:03:54;;;;;;;5.70;3.78;;;;;;;23.71;97.80;99120.03;5069159;28;20225;-72
2023/06/19 06:06:21;;;;;;;5.22;4.03;;;;;;;23.81;99.03;99114.41;5069855;28;20219;-71
2023/06/19 06:08:48;;;;;;;6.65;4.35;;;;;;;23.84;94.93;99125.28;5069640;28;20199;-73
2023/06/19 06:11:15;;;;;;;5.80;4.07;;;;;;;23.96;97.39;99122.91;5068614;28;20710;-71
2023/06/19 06:13:42;;;;;;;6.15;3.90;;;;;;;24.06;94.72;99131.19;5069823;28;20476;-71
2023/06/19 06:16:10;;;;;;;6.10;4.07;;;;;;;24.18;93.44;99141.84;5069743;28;20648;-71
2023/06/19 06:18:37;;;;;;;6.22;3.97;;;;;;;24.27;92.53;99129.41;5068838;28;20195;-71
2023/06/19 06:21:04;;;;;;;12.85;4.50;;;;;;;24.34;93.90;99132.84;5069288;28;20230;-70
2023/06/19 06:23:31;;;;;;;5.85;4.13;;;;;;;24.34;92.19;99130.22;5069534;28;20230;-71
2023/06/19 06:26:02;;;;;;;5.63;3.97;;;;;;;24.63;95.13;99129.06;5069075;28;20280;-71
2023/06/19 06:28:29;;;;;;;5.75;4.45;;;;;;;24.69;89.78;99138.72;5069026;28;20203;-72
2023/06/19 06:30:56;;;;;;;10.65;3.88;;;;;;;24.87;90.26;99135.53;5069617;28;20230;-71
2023/06/19 06:33:24;;;;;;;5.57;4.07;;;;;;;24.92;88.71;99133.09;5069491;28;20289;-72
2023/06/19 06:35:52;;;;;;;7.50;4.30;;;;;;;25.20;91.21;99134.69;5068722;28;20623;-71
2023/06/19 06:38:19;;;;;;;5.45;4.03;;;;;;;25.24;87.38;99141.13;5069443;28;20700;-71
2023/06/19 06:40:46;;;;;;;6.38;3.78;;;;;;;25.46;92.79;99142.47;5069997;28;20249;-72
2023/06/19 06:43:13;;;;;;;6.30;4.38;;;;;;;25.64;90.32;99141.03;5072419;28;20591;-71
2023/06/19 06:45:42;;;;;;;6.13;4.15;;;;;;;25.61;85.37;99144.84;5073469;28;20219;-72
2023/06/19 06:48:09;;;;;;;5.45;4.18;;;;;;;25.77;88.44;99146.19;5073609;28;20202;-72
2023/06/19 06:50:37;;;;;;;8.13;4.40;;;;;;;25.96;87.24;99145.34;5073127;28;20253;-71
2023/06/19 06:53:04;;;;;;;5.65;4.22;;;;;;;26.13;84.59;99155.34;5073074;28;20195;-71
2023/06/19 06:55:30;;;;;;;5.45;3.97;;;;;;;26.32;88.08;99159.63;5073432;28;20195;-71
2023/06/19 06:57:57;;;;;;;5.95;4.07;;;;;;;26.46;84.29;99159.56;5072751;28;20656;-71
2023/06/19 07:00:24;;;;;;;7.38;4.68;;;;;;;26.34;85.43;99155.00;5072074;28;20226;-72
2023/06/19 07:02:51;;;;;;;6.85;4.38;;;;;;;26.03;85.20;99166.25;5073405;28;20280;-71
2023/06/19 07:05:18;;;;;;;5.05;4.15;;;;;;;26.06;85.67;99165.03;5072678;28;20255;-71
2023/06/19 07:07:46;;;;;;;7.55;4.20;;;;;;;26.10;85.32;99163.63;5072129;28;20207;-72
2023/06/19 07:10:13;;;;;;;6.95;4.30;;;;;;;26.11;84.23;99158.16;5073021;28;20299;-71
2023/06/19 07:12:47;;;;;;;7.03;4.35;;;;;;;26.33;85.10;99158.66;5073235;28;20214;-71
2023/06/19 07:15:14;;;;;;;5.78;4.43;;;;;;;26.37;84.72;99162.44;5072034;28;20202;-71
2023/06/19 07:17:41;;;;;;;6.63;4.70;;;;;;;26.33;82.43;99165.72;5072917;28;20203;-72
2023/06/19 07:20:08;;;;;;;6.30;4.78;;;;;;;26.37;85.17;99164.25;5073044;28;20203;-72
2023/06/19 07:22:35;;;;;;;6.57;4.72;;;;;;;26.47;83.29;99161.16;5072945;28;20579;-72
2023/06/19 07:25:04;;;;;;;7.18;3.97;;;;;;;26.33;81.90;99166.50;5072579;28;20214;-71
2023/06/19 07:27:32;;;;;;;6.10;4.30;;;;;;;26.21;81.83;99173.44;5072540;28;20730;-72
2023/06/19 07:29:59;;;;;;;5.97;4.13;;;;;;;26.19;83.12;99176.25;5072896;28;20221;-72
2023/06/19 07:32:26;;;;;;;6.10;4.50;;;;;;;26.16;82.80;99170.63;5074048;28;20227;-70
2023/06/19 07:34:54;;;;;;;6.60;4.30;;;;;;;26.21;82.78;99181.31;5073116;28;20195;-71
2023/06/19 07:37:21;;;;;;;5.72;4.60;;;;;;;26.26;83.99;99173.59;5072536;28;20602;-71
2023/06/19 07:39:49;;;;;;;57.90;27.05;;;;;;;26.31;86.20;99171.16;5072668;28;20211;-74
2023/06/19 07:42:18;;;;;;;18.48;9.55;;;;;;;26.63;91.35;99171.19;5072094;28;20268;-74
2023/06/19 07:44:45;;;;;;;8.30;4.70;;;;;;;26.86;84.95;99167.97;5072718;28;20199;-73
2023/06/19 07:47:13;;;;;;;5.97;4.10;;;;;;;27.11;82.99;99167.94;5072285;28;20226;-72
2023/06/19 07:49:40;;;;;;;9.95;6.43;;;;;;;27.45;83.21;99171.88;5072236;28;20214;-72
2023/06/19 07:52:09;;;;;;;6.50;4.32;;;;;;;27.68;84.22;99176.47;5072088;28;20602;-75
2023/06/19 07:54:36;;;;;;;6.38;4.57;;;;;;;27.60;82.41;99176.75;5072335;28;20191;-74
2023/06/19 07:57:03;;;;;;;5.20;3.88;;;;;;;27.63;75.55;99175.53;5072024;28;20771;-71
2023/06/19 07:59:31;;;;;;;11.85;6.07;;;;;;;27.82;82.87;99171.91;5071985;28;20197;-71
2023/06/19 08:01:58;;;;;;;5.18;3.63;;;;;;;27.81;74.68;99187.88;5070605;28;20235;-74
2023/06/19 08:04:24;;;;;;;4.53;3.47;;;;;;;27.99;76.76;99179.97;5071573;28;20194;-74
2023/06/19 08:06:51;;;;;;;4.78;3.60;;;;;;;28.33;77.81;99180.31;5071892;28;20219;-74
2023/06/19 08:09:18;;;;;;;4.38;3.38;;;;;;;28.52;74.31;99183.72;5072070;28;20210;-73
2023/06/19 08:11:45;;;;;;;5.78;3.70;;;;;;;28.74;79.09;99178.72;5071761;28;20218;-73
2023/06/19 08:14:11;;;;;;;4.70;3.28;;;;;;;28.74;71.01;99190.06;5071953;28;20203;-72
2023/06/19 08:16:40;;;;;;;5.60;3.17;;;;;;;28.99;72.16;99184.59;5071859;28;20218;-73
2023/06/19 08:19:06;;;;;;;4.60;3.22;;;;;;;29.19;71.15;99173.75;5071993;28;20202;-72
2023/06/19 08:21:33;;;;;;;3.85;3.00;;;;;;;29.08;66.71;99185.88;5071828;28;20238;-73
2023/06/19 08:24:00;;;;;;;3.95;3.22;;;;;;;29.37;69.20;99183.34;5071335;28;20210;-72
2023/06/19 08:26:27;;;;;;;4.07;3.33;;;;;;;29.53;69.80;99185.28;5071698;28;20223;-72
2023/06/19 08:28:53;;;;;;;6.10;3.35;;;;;;;29.40;67.78;99190.78;5071995;28;20698;-70
2023/06/19 08:31:21;;;;;;;5.07;3.25;;;;;;;29.50;64.50;99191.00;5071539;28;20240;-73
2023/06/19 08:33:49;;;;;;;4.05;2.97;;;;;;;29.68;64.64;99197.97;5071577;28;20200;-72
2023/06/19 08:36:16;;;;;;;4.38;3.20;;;;;;;30.00;62.21;99200.19;5071539;28;20222;-71
2023/06/19 08:38:43;;;;;;;4.35;2.85;;;;;;;30.11;62.20;99201.97;5071438;28;20195;-71
2023/06/19 08:41:09;;;;;;;3.25;2.72;;;;;;;30.17;61.46;99200.25;5071272;28;20612;-71
2023/06/19 08:43:36;;;;;;;4.97;2.80;;;;;;;30.30;65.23;99201.81;5071464;28;20195;-72
2023/06/19 08:46:15;;;;;;;3.75;2.83;;;;;;;30.40;66.20;99199.38;5071197;28;20214;-71
2023/06/19 08:48:42;;;;;;;3.13;2.53;;;;;;;30.50;60.79;99201.38;5071140;28;20194;-71
2023/06/19 08:51:11;;;;;;;3.45;2.65;;;;;;;30.57;60.46;99207.28;5071180;28;20272;-69
2023/06/19 08:53:46;;;;;;;6.38;3.17;;;;;;;30.34;56.35;99202.91;5071189;28;20663;-72
2023/06/19 08:56:13;;;;;;;3.00;2.50;;;;;;;30.40;54.60;99202.78;5070919;28;20252;-72
2023/06/19 08:58:40;;;;;;;3.25;2.63;;;;;;;30.75;57.92;99198.31;5070913;28;20203;-72
2023/06/19 09:01:07;;;;;;;4.40;2.78;;;;;;;30.74;54.84;99207.28;5070958;28;20321;-72
2023/06/19 09:03:34;;;;;;;4.00;2.75;;;;;;;30.72;56.10;99207.53;5070622;28;20199;-73
2023/06/19 09:06:04;;;;;;;4.05;2.60;;;;;;;30.81;55.56;99200.84;5070073;28;20268;-72
2023/06/19 09:08:32;;;;;;;3.28;2.55;;;;;;;30.83;58.49;99201.41;5070731;28;20198;-71
2023/06/19 09:11:00;;;;;;;3.65;2.45;;;;;;;31.15;59.39;99200.81;5070913;28;20283;-71
2023/06/19 09:13:29;;;;;;;3.28;2.50;;;;;;;30.84;56.54;99195.09;5070797;28;20276;-72
2023/06/19 09:16:01;;;;;;;2.97;2.45;;;;;;;30.73;54.06;99200.41;5070574;28;20219;-72
2023/06/19 09:18:30;;;;;;;4.57;3.08;;;;;;;30.88;56.08;99195.41;5070566;28;20630;-72
2023/06/19 09:20:57;;;;;;;3.10;2.40;;;;;;;30.92;55.51;99195.72;5070712;28;20234;-72
2023/06/19 09:23:24;;;;;;;3.28;2.90;;;;;;;30.96;61.29;99191.56;5070321;28;20263;-71
2023/06/19 09:25:54;;;;;;;3.45;2.88;;;;;;;30.97;54.04;99198.44;5070594;28;20694;-72
2023/06/19 09:28:22;;;;;;;8.50;3.08;;;;;;;31.01;55.14;99200.38;5070852;28;20198;-73
2023/06/19 09:30:57;;;;;;;3.28;2.50;;;;;;;31.30;53.76;99193.13;5075110;28;20221;-71
2023/06/19 09:33:26;;;;;;;4.18;2.80;;;;;;;31.52;53.83;99195.00;5074699;28;20587;-72
2023/06/19 09:35:55;;;;;;;5.40;2.58;;;;;;;31.32;53.32;99188.38;5075449;28;20223;-70
2023/06/19 09:38:25;;;;;;;3.70;3.00;;;;;;;31.21;53.83;99201.69;5070006;28;20670;-73
2023/06/19 09:40:55;;;;;;;3.15;2.60;;;;;;;31.56;53.62;99191.63;5070045;28;20761;-71
2023/06/19 09:43:25;;;;;;;3.33;2.63;;;;;;;32.10;57.86;99190.94;5070140;28;20202;-72
2023/06/19 09:45:56;;;;;;;4.47;2.75;;;;;;;32.35;56.13;99193.03;5070211;28;20214;-71
2023/06/19 09:48:29;;;;;;;3.63;3.05;;;;;;;32.15;53.99;99192.84;5070212;28;20577;-71
2023/06/19 09:51:02;;;;;;;4.07;2.95;;;;;;;31.95;53.30;99190.78;5069921;28;20276;-71
2023/06/19 09:53:29;;;;;;;3.40;2.88;;;;;;;31.95;53.49;99194.22;5070184;28;20302;-72
2023/06/19 09:55:57;;;;;;;4.22;2.88;;;;;;;32.06;53.24;99189.84;5070005;28;20601;-72
2023/06/19 09:58:25;;;;;;;3.00;2.70;;;;;;;32.03;53.85;99174.47;5069838;28;20663;-71
2023/06/19 10:00:53;;;;;;;3.25;2.78;;;;;;;32.24;59.28;99178.09;5069723;28;20223;-72
2023/06/19 10:03:19;;;;;;;3.78;2.58;;;;;;;32.27;53.87;99179.44;5069965;28;20697;-71
2023/06/19 10:05:46;;;;;;;4.15;2.90;;;;;;;32.38;55.69;99176.66;5069783;28;20616;-72
2023/06/19 10:08:13;;;;;;;3.10;2.47;;;;;;;32.56;55.04;99175.50;5069629;28;20206;-70
2023/06/19 10:10:48;;;;;;;2.88;2.58;;;;;;;32.13;53.66;99166.63;5069715;28;20214;-70
2023/06/19 10:13:17;;;;;;;5.00;2.75;;;;;;;32.06;54.27;99168.69;5069960;28;20635;-71
2023/06/19 10:15:47;;;;;;;2.90;2.42;;;;;;;31.80;55.11;99159.66;5069374;28;20226;-72
2023/06/19 10:18:16;;;;;;;4.20;2.70;;;;;;;31.89;56.99;99155.50;5069727;28;20616;-73
2023/06/19 10:20:45;;;;;;;3.70;2.60;;;;;;;31.70;54.46;99165.59;5069940;28;20219;-71
2023/06/19 10:23:16;;;;;;;2.80;2.38;;;;;;;31.61;53.46;99153.88;5069655;28;20237;-72
2023/06/19 10:25:43;;;;;;;3.22;2.45;;;;;;;31.98;56.83;99155.91;5069433;28;20313;-72
2023/06/19 10:28:21;;;;;;;3.05;2.53;;;;;;;31.64;55.12;99145.44;5069768;28;20666;-72
2023/06/19 10:30:54;;;;;;;2.58;2.20;;;;;;;31.80;53.14;99147.22;5069552;28;20259;-72
2023/06/19 10:33:21;;;;;;;3.85;2.55;;;;;;;31.97;52.57;99133.13;5069402;28;20207;-72
2023/06/19 10:35:47;;;;;;;3.35;2.17;;;;;;;32.08;54.69;99126.88;5069662;28;20227;-71
2023/06/19 10:38:16;;;;;;;3.28;2.30;;;;;;;32.34;59.38;99127.09;5069592;28;20199;-73
2023/06/19 10:40:43;;;;;;;2.25;2.00;;;;;;;32.14;52.09;99140.97;5069356;28;20211;-71
2023/06/19 10:43:10;;;;;;;2.90;2.40;;;;;;;31.71;52.21;99146.06;5069251;28;20279;-71
2023/06/19 10:45:39;;;;;;;4.43;2.50;;;;;;;31.49;49.18;99129.41;5069969;28;20223;-73
2023/06/19 10:48:06;;;;;;;2.80;1.90;;;;;;;31.15;49.43;99129.50;5069325;28;20195;-71
2023/06/19 10:50:36;;;;;;;2.75;2.30;;;;;;;30.83;50.81;99135.41;5069579;28;20686;-72
2023/06/19 10:53:03;;;;;;;8.40;2.60;;;;;;;30.62;49.28;99138.75;5069333;28;20194;-71
2023/06/19 10:55:30;;;;;;;3.28;2.65;;;;;;;30.33;51.92;99138.03;5069599;28;20195;-71
2023/06/19 10:57:57;;;;;;;4.07;2.50;;;;;;;30.29;53.12;99134.28;5069130;28;20294;-72
2023/06/19 11:00:28;;;;;;;3.22;2.30;;;;;;;30.54;56.79;99133.88;5068992;28;20198;-71
2023/06/19 11:02:56;;;;;;;4.22;2.40;;;;;;;30.83;53.17;99130.13;5069278;28;20231;-72
2023/06/19 11:05:24;;;;;;;3.90;2.30;;;;;;;31.02;54.98;99116.66;5069515;28;20195;-71
2023/06/19 11:07:55;;;;;;;2.75;2.35;;;;;;;31.34;55.67;99111.53;5069253;28;20581;-71
2023/06/19 11:10:24;;;;;;;3.83;2.47;;;;;;;31.09;52.20;99123.34;5069233;28;20268;-71
2023/06/19 11:12:51;;;;;;;3.05;2.45;;;;;;;31.44;51.86;99124.88;5069435;28;20215;-71
2023/06/19 11:15:18;;;;;;;3.15;1.92;;;;;;;31.59;50.33;99126.88;5068817;28;20195;-72
2023/06/19 11:17:45;;;;;;;3.28;2.70;;;;;;;31.66;49.71;99122.22;5069094;28;20206;-73
2023/06/19 11:20:14;;;;;;;3.50;2.78;;;;;;;31.65;48.69;99119.81;5069439;28;20199;-71
2023/06/19 11:22:42;;;;;;;3.10;2.50;;;;;;;31.41;47.12;99124.56;5068907;28;20231;-72
2023/06/19 11:25:11;;;;;;;3.42;2.67;;;;;;;30.87;48.01;99125.97;5068745;28;20202;-71
2023/06/19 11:27:40;;;;;;;5.13;2.67;;;;;;;30.73;50.55;99129.94;5069733;28;20576;-72
2023/06/19 11:30:09;;;;;;;2.50;2.30;;;;;;;30.54;51.56;99131.22;5073198;28;20252;-71
2023/06/19 11:32:41;;;;;;;5.03;2.90;;;;;;;30.30;51.77;99131.38;5072830;28;20219;-71